sensor_id;sensor_type;location;lat;lon;timestamp;P1;durP1;ratioP1;P2;durP2;ratioP2
24799;SDS011;12897;50.812;4.430;2023-04-08T00:01:43;31.77;;;8.88;;
24799;SDS011;12897;50.812;4.430;2023-04-08T00:04:10;24.35;;;7.95;;
24799;SDS011;12897;50.812;4.430;2023-04-08T00:06:39;26.97;;;8.33;;
24799;SDS011;12897;50.812;4.430;2023-04-08T00:09:06;27.93;;;8.53;;
24799;SDS011;12897;50.812;4.430;2023-04-08T00:11:34;26.10;;;8.50;;
24799;SDS011;12897;50.812;4.430;2023-04-08T00:14:03;28.52;;;8.70;;
24799;SDS011;12897;50.812;4.430;2023-04-08T00:16:30;24.87;;;8.83;;
24799;SDS011;12897;50.812;4.430;2023-04-08T00:18:58;30.10;;;9.70;;
24799;SDS011;12897;50.812;4.430;2023-04-08T00:21:26;28.02;;;7.80;;
24799;SDS011;12897;50.812;4.430;2023-04-08T00:23:53;28.92;;;8.18;;
24799;SDS011;12897;50.812;4.430;2023-04-08T00:26:21;25.05;;;8.25;;
24799;SDS011;12897;50.812;4.430;2023-04-08T00:28:48;28.42;;;9.58;;
24799;SDS011;12897;50.812;4.430;2023-04-08T00:31:16;32.05;;;9.03;;
24799;SDS011;12897;50.812;4.430;2023-04-08T00:33:43;29.15;;;9.53;;
24799;SDS011;12897;50.812;4.430;2023-04-08T00:36:11;32.25;;;9.55;;
24799;SDS011;12897;50.812;4.430;2023-04-08T00:41:26;29.23;;;9.60;;
24799;SDS011;12897;50.812;4.430;2023-04-08T00:43:53;28.60;;;10.23;;
24799;SDS011;12897;50.812;4.430;2023-04-08T00:46:21;28.83;;;8.98;;
24799;SDS011;12897;50.812;4.430;2023-04-08T00:48:48;34.38;;;10.28;;
24799;SDS011;12897;50.812;4.430;2023-04-08T00:51:16;23.35;;;8.88;;
24799;SDS011;12897;50.812;4.430;2023-04-08T00:56:33;35.85;;;10.40;;
24799;SDS011;12897;50.812;4.430;2023-04-08T00:59:01;23.27;;;8.78;;
24799;SDS011;12897;50.812;4.430;2023-04-08T01:01:33;32.17;;;8.50;;
24799;SDS011;12897;50.812;4.430;2023-04-08T01:04:21;30.43;;;8.90;;
24799;SDS011;12897;50.812;4.430;2023-04-08T01:06:48;27.85;;;8.38;;
24799;SDS011;12897;50.812;4.430;2023-04-08T01:09:22;25.77;;;8.30;;
24799;SDS011;12897;50.812;4.430;2023-04-08T01:11:51;29.12;;;8.55;;
24799;SDS011;12897;50.812;4.430;2023-04-08T01:14:22;28.98;;;9.30;;
24799;SDS011;12897;50.812;4.430;2023-04-08T01:16:54;33.58;;;7.90;;
24799;SDS011;12897;50.812;4.430;2023-04-08T01:22:02;25.32;;;8.85;;
24799;SDS011;12897;50.812;4.430;2023-04-08T01:24:28;29.30;;;9.28;;
24799;SDS011;12897;50.812;4.430;2023-04-08T01:26:57;28.65;;;9.88;;
24799;SDS011;12897;50.812;4.430;2023-04-08T01:29:27;25.00;;;9.25;;
24799;SDS011;12897;50.812;4.430;2023-04-08T01:31:56;35.30;;;9.70;;
24799;SDS011;12897;50.812;4.430;2023-04-08T01:34:26;36.58;;;11.25;;
24799;SDS011;12897;50.812;4.430;2023-04-08T01:36:56;28.98;;;9.83;;
24799;SDS011;12897;50.812;4.430;2023-04-08T01:39:25;31.02;;;10.05;;
24799;SDS011;12897;50.812;4.430;2023-04-08T01:41:54;36.98;;;10.35;;
24799;SDS011;12897;50.812;4.430;2023-04-08T01:44:23;29.30;;;10.48;;
24799;SDS011;12897;50.812;4.430;2023-04-08T01:46:53;36.13;;;10.37;;
24799;SDS011;12897;50.812;4.430;2023-04-08T01:49:22;25.08;;;9.98;;
24799;SDS011;12897;50.812;4.430;2023-04-08T01:51:51;34.55;;;10.25;;
24799;SDS011;12897;50.812;4.430;2023-04-08T01:54:21;33.33;;;9.58;;
24799;SDS011;12897;50.812;4.430;2023-04-08T01:56:49;26.25;;;8.78;;
24799;SDS011;12897;50.812;4.430;2023-04-08T01:59:19;21.95;;;8.80;;
24799;SDS011;12897;50.812;4.430;2023-04-08T02:01:49;29.27;;;9.35;;
24799;SDS011;12897;50.812;4.430;2023-04-08T02:04:18;31.20;;;9.45;;
24799;SDS011;12897;50.812;4.430;2023-04-08T02:06:46;25.23;;;10.60;;
24799;SDS011;12897;50.812;4.430;2023-04-08T02:09:14;26.97;;;9.78;;
24799;SDS011;12897;50.812;4.430;2023-04-08T02:11:41;26.50;;;9.25;;
24799;SDS011;12897;50.812;4.430;2023-04-08T02:14:09;27.48;;;9.08;;
24799;SDS011;12897;50.812;4.430;2023-04-08T02:16:42;21.25;;;9.98;;
24799;SDS011;12897;50.812;4.430;2023-04-08T02:19:14;28.90;;;10.20;;
24799;SDS011;12897;50.812;4.430;2023-04-08T02:21:54;28.98;;;11.03;;
24799;SDS011;12897;50.812;4.430;2023-04-08T02:24:23;28.52;;;11.73;;
24799;SDS011;12897;50.812;4.430;2023-04-08T02:26:52;22.75;;;9.58;;
24799;SDS011;12897;50.812;4.430;2023-04-08T02:29:22;28.85;;;11.40;;
24799;SDS011;12897;50.812;4.430;2023-04-08T02:31:52;88.07;;;27.75;;
24799;SDS011;12897;50.812;4.430;2023-04-08T02:34:20;43.83;;;13.08;;
24799;SDS011;12897;50.812;4.430;2023-04-08T02:36:49;28.32;;;11.78;;
24799;SDS011;12897;50.812;4.430;2023-04-08T02:39:18;32.00;;;12.63;;
24799;SDS011;12897;50.812;4.430;2023-04-08T02:41:45;31.48;;;13.10;;
24799;SDS011;12897;50.812;4.430;2023-04-08T02:44:13;29.20;;;11.73;;
24799;SDS011;12897;50.812;4.430;2023-04-08T02:46:40;38.02;;;12.45;;
24799;SDS011;12897;50.812;4.430;2023-04-08T02:49:08;31.10;;;11.53;;
24799;SDS011;12897;50.812;4.430;2023-04-08T02:51:35;38.45;;;13.05;;
24799;SDS011;12897;50.812;4.430;2023-04-08T02:54:03;32.03;;;11.80;;
24799;SDS011;12897;50.812;4.430;2023-04-08T02:56:30;37.70;;;12.43;;
24799;SDS011;12897;50.812;4.430;2023-04-08T02:58:58;24.95;;;10.95;;
24799;SDS011;12897;50.812;4.430;2023-04-08T03:01:26;31.60;;;11.25;;
24799;SDS011;12897;50.812;4.430;2023-04-08T03:03:53;33.25;;;12.23;;
24799;SDS011;12897;50.812;4.430;2023-04-08T03:09:08;27.10;;;10.85;;
24799;SDS011;12897;50.812;4.430;2023-04-08T03:11:36;26.68;;;11.60;;
24799;SDS011;12897;50.812;4.430;2023-04-08T03:14:03;29.12;;;11.40;;
24799;SDS011;12897;50.812;4.430;2023-04-08T03:16:31;28.40;;;10.68;;
24799;SDS011;12897;50.812;4.430;2023-04-08T03:18:59;27.45;;;10.03;;
24799;SDS011;12897;50.812;4.430;2023-04-08T03:21:26;27.37;;;10.03;;
24799;SDS011;12897;50.812;4.430;2023-04-08T03:23:56;19.63;;;10.47;;
24799;SDS011;12897;50.812;4.430;2023-04-08T03:26:23;27.32;;;11.73;;
24799;SDS011;12897;50.812;4.430;2023-04-08T03:28:51;32.95;;;11.65;;
24799;SDS011;12897;50.812;4.430;2023-04-08T03:31:19;30.68;;;11.25;;
24799;SDS011;12897;50.812;4.430;2023-04-08T03:33:47;25.65;;;12.47;;
24799;SDS011;12897;50.812;4.430;2023-04-08T03:36:14;26.82;;;11.55;;
24799;SDS011;12897;50.812;4.430;2023-04-08T03:38:42;31.45;;;12.13;;
24799;SDS011;12897;50.812;4.430;2023-04-08T03:41:10;28.00;;;12.90;;
24799;SDS011;12897;50.812;4.430;2023-04-08T03:43:38;30.35;;;12.73;;
24799;SDS011;12897;50.812;4.430;2023-04-08T03:46:05;30.88;;;13.88;;
24799;SDS011;12897;50.812;4.430;2023-04-08T03:48:33;31.07;;;14.40;;
24799;SDS011;12897;50.812;4.430;2023-04-08T03:51:00;35.23;;;14.13;;
24799;SDS011;12897;50.812;4.430;2023-04-08T03:53:28;33.33;;;14.90;;
24799;SDS011;12897;50.812;4.430;2023-04-08T03:55:55;32.23;;;15.08;;
24799;SDS011;12897;50.812;4.430;2023-04-08T03:58:23;33.78;;;16.82;;
24799;SDS011;12897;50.812;4.430;2023-04-08T04:00:51;42.90;;;16.87;;
24799;SDS011;12897;50.812;4.430;2023-04-08T04:03:19;35.43;;;17.52;;
24799;SDS011;12897;50.812;4.430;2023-04-08T04:05:46;39.80;;;17.25;;
24799;SDS011;12897;50.812;4.430;2023-04-08T04:08:14;40.35;;;18.98;;
24799;SDS011;12897;50.812;4.430;2023-04-08T04:10:41;42.83;;;18.55;;
24799;SDS011;12897;50.812;4.430;2023-04-08T04:13:09;33.08;;;17.52;;
24799;SDS011;12897;50.812;4.430;2023-04-08T04:15:37;42.93;;;18.65;;
24799;SDS011;12897;50.812;4.430;2023-04-08T04:18:06;50.25;;;19.62;;
24799;SDS011;12897;50.812;4.430;2023-04-08T04:20:34;44.42;;;18.90;;
24799;SDS011;12897;50.812;4.430;2023-04-08T04:23:03;48.10;;;20.15;;
24799;SDS011;12897;50.812;4.430;2023-04-08T04:25:30;49.88;;;19.80;;
24799;SDS011;12897;50.812;4.430;2023-04-08T04:27:58;49.95;;;20.52;;
24799;SDS011;12897;50.812;4.430;2023-04-08T04:30:26;51.05;;;20.43;;
24799;SDS011;12897;50.812;4.430;2023-04-08T04:32:54;47.48;;;20.52;;
24799;SDS011;12897;50.812;4.430;2023-04-08T04:35:22;53.92;;;20.35;;
24799;SDS011;12897;50.812;4.430;2023-04-08T04:37:50;47.95;;;21.35;;
24799;SDS011;12897;50.812;4.430;2023-04-08T04:40:18;45.92;;;20.57;;
24799;SDS011;12897;50.812;4.430;2023-04-08T04:42:46;46.33;;;21.07;;
24799;SDS011;12897;50.812;4.430;2023-04-08T04:45:13;45.43;;;22.07;;
24799;SDS011;12897;50.812;4.430;2023-04-08T04:47:41;52.90;;;21.68;;
24799;SDS011;12897;50.812;4.430;2023-04-08T04:50:09;49.03;;;21.10;;
24799;SDS011;12897;50.812;4.430;2023-04-08T04:52:36;47.40;;;21.90;;
24799;SDS011;12897;50.812;4.430;2023-04-08T04:55:04;56.33;;;23.42;;
24799;SDS011;12897;50.812;4.430;2023-04-08T04:57:32;54.75;;;22.40;;
24799;SDS011;12897;50.812;4.430;2023-04-08T04:59:59;56.00;;;22.40;;
24799;SDS011;12897;50.812;4.430;2023-04-08T05:02:27;46.23;;;22.82;;
24799;SDS011;12897;50.812;4.430;2023-04-08T05:04:55;57.62;;;22.55;;
24799;SDS011;12897;50.812;4.430;2023-04-08T05:07:22;52.85;;;21.52;;
24799;SDS011;12897;50.812;4.430;2023-04-08T05:09:50;62.55;;;22.35;;
24799;SDS011;12897;50.812;4.430;2023-04-08T05:12:17;56.18;;;22.90;;
24799;SDS011;12897;50.812;4.430;2023-04-08T05:14:48;53.83;;;21.30;;
24799;SDS011;12897;50.812;4.430;2023-04-08T05:17:15;55.90;;;22.15;;
24799;SDS011;12897;50.812;4.430;2023-04-08T05:19:43;55.08;;;22.20;;
24799;SDS011;12897;50.812;4.430;2023-04-08T05:22:10;50.50;;;21.87;;
24799;SDS011;12897;50.812;4.430;2023-04-08T05:24:38;61.33;;;23.50;;
24799;SDS011;12897;50.812;4.430;2023-04-08T05:27:05;56.20;;;20.90;;
24799;SDS011;12897;50.812;4.430;2023-04-08T05:29:33;54.65;;;21.42;;
24799;SDS011;12897;50.812;4.430;2023-04-08T05:32:00;59.75;;;22.85;;
24799;SDS011;12897;50.812;4.430;2023-04-08T05:34:30;52.67;;;21.17;;
24799;SDS011;12897;50.812;4.430;2023-04-08T05:36:57;54.85;;;22.02;;
24799;SDS011;12897;50.812;4.430;2023-04-08T05:39:25;55.63;;;22.40;;
24799;SDS011;12897;50.812;4.430;2023-04-08T05:41:52;60.45;;;22.15;;
24799;SDS011;12897;50.812;4.430;2023-04-08T05:44:20;50.58;;;22.42;;
24799;SDS011;12897;50.812;4.430;2023-04-08T05:46:47;61.13;;;23.60;;
24799;SDS011;12897;50.812;4.430;2023-04-08T05:49:15;53.38;;;22.50;;
24799;SDS011;12897;50.812;4.430;2023-04-08T05:51:42;49.70;;;23.00;;
24799;SDS011;12897;50.812;4.430;2023-04-08T05:54:10;56.83;;;23.92;;
24799;SDS011;12897;50.812;4.430;2023-04-08T05:56:38;60.70;;;22.62;;
24799;SDS011;12897;50.812;4.430;2023-04-08T05:59:05;58.15;;;23.27;;
24799;SDS011;12897;50.812;4.430;2023-04-08T06:01:33;49.77;;;22.95;;
24799;SDS011;12897;50.812;4.430;2023-04-08T06:04:01;50.17;;;22.95;;
24799;SDS011;12897;50.812;4.430;2023-04-08T06:06:28;53.30;;;22.20;;
24799;SDS011;12897;50.812;4.430;2023-04-08T06:08:56;64.15;;;23.18;;
24799;SDS011;12897;50.812;4.430;2023-04-08T06:11:23;50.67;;;23.10;;
24799;SDS011;12897;50.812;4.430;2023-04-08T06:13:51;53.90;;;22.93;;
24799;SDS011;12897;50.812;4.430;2023-04-08T06:16:18;55.43;;;22.37;;
24799;SDS011;12897;50.812;4.430;2023-04-08T06:18:46;54.58;;;21.95;;
24799;SDS011;12897;50.812;4.430;2023-04-08T06:21:14;51.85;;;22.85;;
24799;SDS011;12897;50.812;4.430;2023-04-08T06:23:41;46.40;;;21.27;;
24799;SDS011;12897;50.812;4.430;2023-04-08T06:26:09;48.05;;;22.32;;
24799;SDS011;12897;50.812;4.430;2023-04-08T06:28:36;56.13;;;24.37;;
24799;SDS011;12897;50.812;4.430;2023-04-08T06:31:04;56.37;;;23.57;;
24799;SDS011;12897;50.812;4.430;2023-04-08T06:33:31;50.25;;;22.93;;
24799;SDS011;12897;50.812;4.430;2023-04-08T06:36:04;45.95;;;20.77;;
24799;SDS011;12897;50.812;4.430;2023-04-08T06:38:33;46.85;;;23.35;;
24799;SDS011;12897;50.812;4.430;2023-04-08T06:41:06;46.92;;;21.82;;
24799;SDS011;12897;50.812;4.430;2023-04-08T06:43:31;51.23;;;21.97;;
24799;SDS011;12897;50.812;4.430;2023-04-08T06:46:02;50.45;;;22.93;;
24799;SDS011;12897;50.812;4.430;2023-04-08T06:48:31;62.95;;;23.70;;
24799;SDS011;12897;50.812;4.430;2023-04-08T06:50:59;55.67;;;22.85;;
24799;SDS011;12897;50.812;4.430;2023-04-08T06:53:28;48.80;;;23.00;;
24799;SDS011;12897;50.812;4.430;2023-04-08T06:55:58;57.03;;;24.72;;
24799;SDS011;12897;50.812;4.430;2023-04-08T06:58:28;49.05;;;22.15;;
24799;SDS011;12897;50.812;4.430;2023-04-08T07:00:55;40.40;;;20.30;;
24799;SDS011;12897;50.812;4.430;2023-04-08T07:03:24;43.28;;;21.23;;
24799;SDS011;12897;50.812;4.430;2023-04-08T07:05:52;44.50;;;20.55;;
24799;SDS011;12897;50.812;4.430;2023-04-08T07:08:21;48.13;;;22.55;;
24799;SDS011;12897;50.812;4.430;2023-04-08T07:10:48;36.25;;;19.15;;
24799;SDS011;12897;50.812;4.430;2023-04-08T07:13:18;43.30;;;19.77;;
24799;SDS011;12897;50.812;4.430;2023-04-08T07:15:46;44.08;;;19.95;;
24799;SDS011;12897;50.812;4.430;2023-04-08T07:18:13;38.80;;;16.93;;
24799;SDS011;12897;50.812;4.430;2023-04-08T07:20:41;38.40;;;16.87;;
24799;SDS011;12897;50.812;4.430;2023-04-08T07:23:10;44.23;;;18.62;;
24799;SDS011;12897;50.812;4.430;2023-04-08T07:25:37;49.48;;;21.75;;
24799;SDS011;12897;50.812;4.430;2023-04-08T07:28:07;40.20;;;20.57;;
24799;SDS011;12897;50.812;4.430;2023-04-08T07:30:34;44.35;;;19.15;;
24799;SDS011;12897;50.812;4.430;2023-04-08T07:33:02;35.88;;;19.73;;
24799;SDS011;12897;50.812;4.430;2023-04-08T07:35:29;42.70;;;20.15;;
24799;SDS011;12897;50.812;4.430;2023-04-08T07:37:59;37.78;;;18.77;;
24799;SDS011;12897;50.812;4.430;2023-04-08T07:40:26;57.23;;;28.40;;
24799;SDS011;12897;50.812;4.430;2023-04-08T07:42:55;41.02;;;19.77;;
24799;SDS011;12897;50.812;4.430;2023-04-08T07:45:22;35.92;;;17.77;;
24799;SDS011;12897;50.812;4.430;2023-04-08T07:47:50;31.90;;;16.40;;
24799;SDS011;12897;50.812;4.430;2023-04-08T07:50:19;33.85;;;17.30;;
24799;SDS011;12897;50.812;4.430;2023-04-08T07:52:47;38.38;;;16.77;;
24799;SDS011;12897;50.812;4.430;2023-04-08T07:55:17;36.08;;;16.48;;
24799;SDS011;12897;50.812;4.430;2023-04-08T07:57:45;37.08;;;17.50;;
24799;SDS011;12897;50.812;4.430;2023-04-08T08:00:14;32.48;;;17.23;;
24799;SDS011;12897;50.812;4.430;2023-04-08T08:02:43;35.65;;;17.67;;
24799;SDS011;12897;50.812;4.430;2023-04-08T08:05:11;34.10;;;16.93;;
24799;SDS011;12897;50.812;4.430;2023-04-08T08:07:40;32.15;;;14.33;;
24799;SDS011;12897;50.812;4.430;2023-04-08T08:10:08;33.38;;;17.30;;
24799;SDS011;12897;50.812;4.430;2023-04-08T08:12:36;29.40;;;14.07;;
24799;SDS011;12897;50.812;4.430;2023-04-08T08:15:04;32.67;;;15.03;;
24799;SDS011;12897;50.812;4.430;2023-04-08T08:17:35;31.73;;;15.37;;
24799;SDS011;12897;50.812;4.430;2023-04-08T08:20:03;29.07;;;15.15;;
24799;SDS011;12897;50.812;4.430;2023-04-08T08:22:31;38.85;;;16.97;;
24799;SDS011;12897;50.812;4.430;2023-04-08T08:24:58;32.03;;;13.38;;
24799;SDS011;12897;50.812;4.430;2023-04-08T08:27:28;31.55;;;15.65;;
24799;SDS011;12897;50.812;4.430;2023-04-08T08:29:59;24.98;;;11.20;;
24799;SDS011;12897;50.812;4.430;2023-04-08T08:32:30;33.40;;;16.20;;
24799;SDS011;12897;50.812;4.430;2023-04-08T08:34:58;31.17;;;13.05;;
24799;SDS011;12897;50.812;4.430;2023-04-08T08:37:25;25.62;;;12.73;;
24799;SDS011;12897;50.812;4.430;2023-04-08T08:39:54;27.02;;;13.40;;
24799;SDS011;12897;50.812;4.430;2023-04-08T08:42:24;28.77;;;15.28;;
24799;SDS011;12897;50.812;4.430;2023-04-08T08:44:52;34.00;;;16.55;;
24799;SDS011;12897;50.812;4.430;2023-04-08T08:47:22;29.27;;;16.70;;
24799;SDS011;12897;50.812;4.430;2023-04-08T08:49:50;35.13;;;17.55;;
24799;SDS011;12897;50.812;4.430;2023-04-08T08:52:18;36.98;;;17.17;;
24799;SDS011;12897;50.812;4.430;2023-04-08T08:54:46;36.00;;;17.48;;
24799;SDS011;12897;50.812;4.430;2023-04-08T08:57:17;31.40;;;16.70;;
24799;SDS011;12897;50.812;4.430;2023-04-08T08:59:45;30.30;;;15.45;;
24799;SDS011;12897;50.812;4.430;2023-04-08T09:02:24;33.95;;;16.77;;
24799;SDS011;12897;50.812;4.430;2023-04-08T09:05:01;29.70;;;14.55;;
24799;SDS011;12897;50.812;4.430;2023-04-08T09:07:34;33.80;;;15.35;;
24799;SDS011;12897;50.812;4.430;2023-04-08T09:10:07;32.45;;;15.78;;
24799;SDS011;12897;50.812;4.430;2023-04-08T09:12:35;28.75;;;15.30;;
24799;SDS011;12897;50.812;4.430;2023-04-08T09:15:06;27.77;;;15.68;;
24799;SDS011;12897;50.812;4.430;2023-04-08T09:17:37;28.83;;;15.80;;
24799;SDS011;12897;50.812;4.430;2023-04-08T09:25:28;32.55;;;14.87;;
24799;SDS011;12897;50.812;4.430;2023-04-08T09:30:25;19.52;;;10.63;;
24799;SDS011;12897;50.812;4.430;2023-04-08T09:32:54;21.20;;;10.75;;
24799;SDS011;12897;50.812;4.430;2023-04-08T09:35:23;17.52;;;11.12;;
24799;SDS011;12897;50.812;4.430;2023-04-08T09:37:51;22.27;;;10.13;;
24799;SDS011;12897;50.812;4.430;2023-04-08T09:40:18;17.10;;;9.08;;
24799;SDS011;12897;50.812;4.430;2023-04-08T09:42:47;19.87;;;10.20;;
24799;SDS011;12897;50.812;4.430;2023-04-08T09:45:19;15.40;;;9.53;;
24799;SDS011;12897;50.812;4.430;2023-04-08T09:48:03;19.98;;;9.95;;
24799;SDS011;12897;50.812;4.430;2023-04-08T09:50:34;21.15;;;11.15;;
24799;SDS011;12897;50.812;4.430;2023-04-08T09:53:12;23.47;;;13.22;;
24799;SDS011;12897;50.812;4.430;2023-04-08T09:55:52;24.80;;;13.75;;
24799;SDS011;12897;50.812;4.430;2023-04-08T09:58:24;27.17;;;14.40;;
24799;SDS011;12897;50.812;4.430;2023-04-08T10:00:53;27.27;;;14.30;;
24799;SDS011;12897;50.812;4.430;2023-04-08T10:05:56;22.00;;;12.93;;
24799;SDS011;12897;50.812;4.430;2023-04-08T10:08:27;27.80;;;13.18;;
24799;SDS011;12897;50.812;4.430;2023-04-08T10:10:57;24.47;;;13.78;;
24799;SDS011;12897;50.812;4.430;2023-04-08T10:13:25;20.70;;;12.28;;
24799;SDS011;12897;50.812;4.430;2023-04-08T10:18:49;21.15;;;12.90;;
24799;SDS011;12897;50.812;4.430;2023-04-08T10:21:31;25.97;;;14.13;;
24799;SDS011;12897;50.812;4.430;2023-04-08T10:24:02;25.12;;;14.15;;
24799;SDS011;12897;50.812;4.430;2023-04-08T10:26:37;29.42;;;14.87;;
24799;SDS011;12897;50.812;4.430;2023-04-08T10:31:49;22.75;;;12.37;;
24799;SDS011;12897;50.812;4.430;2023-04-08T10:37:05;21.87;;;12.30;;
24799;SDS011;12897;50.812;4.430;2023-04-08T10:42:25;17.48;;;11.43;;
24799;SDS011;12897;50.812;4.430;2023-04-08T10:44:52;18.12;;;10.68;;
24799;SDS011;12897;50.812;4.430;2023-04-08T10:47:24;22.60;;;12.05;;
24799;SDS011;12897;50.812;4.430;2023-04-08T10:49:50;22.17;;;12.35;;
24799;SDS011;12897;50.812;4.430;2023-04-08T10:52:17;19.10;;;11.53;;
24799;SDS011;12897;50.812;4.430;2023-04-08T10:54:48;25.20;;;11.83;;
24799;SDS011;12897;50.812;4.430;2023-04-08T10:57:22;19.67;;;11.73;;
24799;SDS011;12897;50.812;4.430;2023-04-08T10:59:51;23.40;;;12.68;;
24799;SDS011;12897;50.812;4.430;2023-04-08T11:02:19;19.98;;;12.53;;
24799;SDS011;12897;50.812;4.430;2023-04-08T11:04:46;24.18;;;13.48;;
24799;SDS011;12897;50.812;4.430;2023-04-08T11:07:15;16.93;;;10.98;;
24799;SDS011;12897;50.812;4.430;2023-04-08T11:09:44;20.90;;;12.23;;
24799;SDS011;12897;50.812;4.430;2023-04-08T11:12:11;24.15;;;12.03;;
24799;SDS011;12897;50.812;4.430;2023-04-08T11:14:44;22.55;;;12.15;;
24799;SDS011;12897;50.812;4.430;2023-04-08T11:17:13;23.00;;;11.10;;
24799;SDS011;12897;50.812;4.430;2023-04-08T11:19:42;21.97;;;11.10;;
24799;SDS011;12897;50.812;4.430;2023-04-08T11:22:11;24.47;;;12.40;;
24799;SDS011;12897;50.812;4.430;2023-04-08T11:24:39;29.18;;;12.88;;
24799;SDS011;12897;50.812;4.430;2023-04-08T11:27:07;21.75;;;12.07;;
24799;SDS011;12897;50.812;4.430;2023-04-08T11:29:35;23.73;;;13.40;;
24799;SDS011;12897;50.812;4.430;2023-04-08T11:32:03;22.50;;;12.28;;
24799;SDS011;12897;50.812;4.430;2023-04-08T11:34:31;22.17;;;12.30;;
24799;SDS011;12897;50.812;4.430;2023-04-08T11:36:59;15.18;;;8.85;;
24799;SDS011;12897;50.812;4.430;2023-04-08T11:39:27;13.90;;;8.48;;
24799;SDS011;12897;50.812;4.430;2023-04-08T11:41:55;18.15;;;8.78;;
24799;SDS011;12897;50.812;4.430;2023-04-08T11:44:32;21.07;;;10.40;;
24799;SDS011;12897;50.812;4.430;2023-04-08T11:47:00;17.75;;;10.20;;
24799;SDS011;12897;50.812;4.430;2023-04-08T11:49:28;25.12;;;10.80;;
24799;SDS011;12897;50.812;4.430;2023-04-08T11:51:58;17.23;;;10.65;;
24799;SDS011;12897;50.812;4.430;2023-04-08T11:54:29;24.52;;;13.70;;
24799;SDS011;12897;50.812;4.430;2023-04-08T11:56:58;19.48;;;10.88;;
24799;SDS011;12897;50.812;4.430;2023-04-08T11:59:27;22.05;;;11.30;;
24799;SDS011;12897;50.812;4.430;2023-04-08T12:01:55;19.02;;;11.15;;
24799;SDS011;12897;50.812;4.430;2023-04-08T12:04:23;21.23;;;12.18;;
24799;SDS011;12897;50.812;4.430;2023-04-08T12:06:51;22.93;;;12.07;;
24799;SDS011;12897;50.812;4.430;2023-04-08T12:09:18;24.32;;;12.68;;
24799;SDS011;12897;50.812;4.430;2023-04-08T12:11:46;22.07;;;13.15;;
24799;SDS011;12897;50.812;4.430;2023-04-08T12:14:13;22.40;;;11.97;;
24799;SDS011;12897;50.812;4.430;2023-04-08T12:16:41;22.17;;;13.75;;
24799;SDS011;12897;50.812;4.430;2023-04-08T12:19:08;27.58;;;14.73;;
24799;SDS011;12897;50.812;4.430;2023-04-08T12:21:36;30.60;;;16.55;;
24799;SDS011;12897;50.812;4.430;2023-04-08T12:24:04;28.02;;;15.03;;
24799;SDS011;12897;50.812;4.430;2023-04-08T12:26:31;24.23;;;14.40;;
24799;SDS011;12897;50.812;4.430;2023-04-08T12:28:59;28.32;;;15.30;;
24799;SDS011;12897;50.812;4.430;2023-04-08T12:31:27;31.40;;;16.17;;
24799;SDS011;12897;50.812;4.430;2023-04-08T12:33:54;27.17;;;14.83;;
24799;SDS011;12897;50.812;4.430;2023-04-08T12:36:22;28.15;;;15.00;;
24799;SDS011;12897;50.812;4.430;2023-04-08T12:38:49;25.17;;;15.93;;
24799;SDS011;12897;50.812;4.430;2023-04-08T12:41:17;25.43;;;15.32;;
24799;SDS011;12897;50.812;4.430;2023-04-08T12:43:44;27.32;;;15.65;;
24799;SDS011;12897;50.812;4.430;2023-04-08T12:46:12;22.55;;;14.73;;
24799;SDS011;12897;50.812;4.430;2023-04-08T12:48:39;24.30;;;14.25;;
24799;SDS011;12897;50.812;4.430;2023-04-08T12:51:08;22.90;;;14.05;;
24799;SDS011;12897;50.812;4.430;2023-04-08T12:53:37;25.43;;;15.35;;
24799;SDS011;12897;50.812;4.430;2023-04-08T12:56:05;24.10;;;15.30;;
24799;SDS011;12897;50.812;4.430;2023-04-08T12:58:32;23.18;;;15.60;;
24799;SDS011;12897;50.812;4.430;2023-04-08T13:01:00;22.82;;;15.10;;
24799;SDS011;12897;50.812;4.430;2023-04-08T13:03:28;23.10;;;13.95;;
24799;SDS011;12897;50.812;4.430;2023-04-08T13:05:56;26.00;;;14.68;;
24799;SDS011;12897;50.812;4.430;2023-04-08T13:08:24;25.68;;;15.30;;
24799;SDS011;12897;50.812;4.430;2023-04-08T13:10:51;25.90;;;14.38;;
24799;SDS011;12897;50.812;4.430;2023-04-08T13:13:19;24.45;;;14.15;;
24799;SDS011;12897;50.812;4.430;2023-04-08T13:15:47;26.77;;;15.08;;
24799;SDS011;12897;50.812;4.430;2023-04-08T13:18:15;27.10;;;16.07;;
24799;SDS011;12897;50.812;4.430;2023-04-08T13:20:43;25.43;;;15.00;;
24799;SDS011;12897;50.812;4.430;2023-04-08T13:23:10;26.40;;;15.32;;
24799;SDS011;12897;50.812;4.430;2023-04-08T13:25:39;23.22;;;14.90;;
24799;SDS011;12897;50.812;4.430;2023-04-08T13:28:07;24.95;;;14.78;;
24799;SDS011;12897;50.812;4.430;2023-04-08T13:30:35;22.85;;;13.95;;
24799;SDS011;12897;50.812;4.430;2023-04-08T13:33:03;22.70;;;14.50;;
24799;SDS011;12897;50.812;4.430;2023-04-08T13:35:31;26.07;;;16.07;;
24799;SDS011;12897;50.812;4.430;2023-04-08T13:37:58;26.20;;;15.23;;
24799;SDS011;12897;50.812;4.430;2023-04-08T13:40:26;28.40;;;15.60;;
24799;SDS011;12897;50.812;4.430;2023-04-08T13:42:53;26.42;;;15.72;;
24799;SDS011;12897;50.812;4.430;2023-04-08T13:45:21;26.23;;;14.28;;
24799;SDS011;12897;50.812;4.430;2023-04-08T13:47:48;23.05;;;13.28;;
24799;SDS011;12897;50.812;4.430;2023-04-08T13:50:16;23.62;;;14.25;;
24799;SDS011;12897;50.812;4.430;2023-04-08T13:52:43;21.77;;;13.15;;
24799;SDS011;12897;50.812;4.430;2023-04-08T13:55:11;21.82;;;13.75;;
24799;SDS011;12897;50.812;4.430;2023-04-08T13:57:39;24.87;;;13.93;;
24799;SDS011;12897;50.812;4.430;2023-04-08T14:00:07;26.82;;;14.45;;
24799;SDS011;12897;50.812;4.430;2023-04-08T14:02:35;24.02;;;13.38;;
24799;SDS011;12897;50.812;4.430;2023-04-08T14:05:03;26.30;;;14.45;;
24799;SDS011;12897;50.812;4.430;2023-04-08T14:07:31;21.85;;;12.78;;
24799;SDS011;12897;50.812;4.430;2023-04-08T14:09:58;18.60;;;12.85;;
24799;SDS011;12897;50.812;4.430;2023-04-08T14:12:26;22.00;;;13.28;;
24799;SDS011;12897;50.812;4.430;2023-04-08T14:14:53;21.87;;;14.33;;
24799;SDS011;12897;50.812;4.430;2023-04-08T14:17:21;22.65;;;15.28;;
24799;SDS011;12897;50.812;4.430;2023-04-08T14:22:35;26.50;;;16.65;;
24799;SDS011;12897;50.812;4.430;2023-04-08T14:25:03;23.18;;;14.75;;
24799;SDS011;12897;50.812;4.430;2023-04-08T14:27:31;20.88;;;14.07;;
24799;SDS011;12897;50.812;4.430;2023-04-08T14:29:58;22.95;;;14.20;;
24799;SDS011;12897;50.812;4.430;2023-04-08T14:32:26;27.27;;;14.43;;
24799;SDS011;12897;50.812;4.430;2023-04-08T14:34:53;23.45;;;13.85;;
24799;SDS011;12897;50.812;4.430;2023-04-08T14:37:21;25.12;;;13.78;;
24799;SDS011;12897;50.812;4.430;2023-04-08T14:39:49;26.60;;;14.95;;
24799;SDS011;12897;50.812;4.430;2023-04-08T14:42:16;21.82;;;14.05;;
24799;SDS011;12897;50.812;4.430;2023-04-08T14:44:44;24.18;;;15.28;;
24799;SDS011;12897;50.812;4.430;2023-04-08T14:47:19;23.55;;;14.45;;
24799;SDS011;12897;50.812;4.430;2023-04-08T14:49:47;26.93;;;15.20;;
24799;SDS011;12897;50.812;4.430;2023-04-08T14:52:14;28.50;;;15.88;;
24799;SDS011;12897;50.812;4.430;2023-04-08T14:54:42;29.00;;;16.15;;
24799;SDS011;12897;50.812;4.430;2023-04-08T14:57:10;24.12;;;15.90;;
24799;SDS011;12897;50.812;4.430;2023-04-08T14:59:37;24.75;;;15.15;;
24799;SDS011;12897;50.812;4.430;2023-04-08T15:02:05;26.73;;;15.90;;
24799;SDS011;12897;50.812;4.430;2023-04-08T15:04:32;29.57;;;16.80;;
24799;SDS011;12897;50.812;4.430;2023-04-08T15:07:00;23.42;;;16.85;;